This is the latest recevied weather packets stored in our database for station/object K1NOT-WX. If no packets are shown the sender has not sent any weather packets the latest 10 day(s).
| Time | Temp. | Humidity | Pressure | Rain* | Wind** | Luminosity | Snow |
|---|---|---|---|---|---|---|---|
| 1778296333 | 14.44° C | 67% | 1012.9 hPa | 0 mm | - | - | - |
| 1778295433 | 15° C | 64% | 1012.9 hPa | 0 mm | - | - | - |
| 1778294533 | 15° C | 62% | 1012.9 hPa | 0 mm | - | - | - |
| 1778293633 | 15.56° C | 62% | 1012.9 hPa | 0 mm | - | - | - |
| 1778292733 | 15.56° C | 60% | 1012.5 hPa | 0 mm | - | - | - |
| 1778291833 | 15.56° C | 59% | 1012.9 hPa | 0 mm | - | - | - |
| 1778290933 | 15.56° C | 59% | 1012.5 hPa | 0 mm | - | - | - |
| 1778290033 | 16.11° C | 57% | 1012.5 hPa | 0 mm | - | - | - |
| 1778289133 | 16.11° C | 57% | 1012.5 hPa | 0 mm | - | - | - |
| 1778288233 | 16.11° C | 56% | 1012.9 hPa | 0 mm | - | - | - |
| 1778287333 | 16.67° C | 54% | 1012.9 hPa | 0 mm | - | - | - |
| 1778286432 | 16.67° C | 54% | 1012.5 hPa | 0 mm | - | - | - |
| 1778285532 | 16.67° C | 54% | 1012.9 hPa | 0 mm | - | - | - |
| 1778284632 | 16.11° C | 54% | 1012.5 hPa | 0 mm | - | - | - |
| 1778283732 | 16.67° C | 54% | 1012.5 hPa | 0 mm | - | - | - |
| 1778282832 | 16.11° C | 54% | 1012.2 hPa | 0 mm | - | - | - |
| 1778281932 | 16.11° C | 54% | 1012.5 hPa | 0 mm | - | - | - |
| 1778281033 | 16.11° C | 53% | 1012.9 hPa | 0 mm | - | - | - |
| 1778280132 | 16.11° C | 55% | 1012.5 hPa | 0 mm | - | - | - |
| 1778279232 | 16.11° C | 56% | 1012.5 hPa | 0 mm | - | - | - |
| 1778278332 | 16.11° C | 55% | 1012.9 hPa | 0 mm | - | - | - |
| 1778277432 | 16.11° C | 56% | 1012.9 hPa | 0 mm | - | - | - |
| 1778276532 | 15.56° C | 59% | 1012.9 hPa | 0 mm | - | - | - |
| 1778275632 | 15.56° C | 59% | 1012.5 hPa | 0 mm | - | - | - |
| 1778274732 | 15.56° C | 58% | 1012.9 hPa | 0 mm | - | - | - |
* Rain latest hour (hover to see other rain measurements)
** Current wind speed in m/s (hover to see current wind gust speed)